Flugplatz Memmingen (ETSM)

Hier findest Du alle Informationen zum Flugplatz Memmingen (ETSM).

Informationen für Piloten zum Flugplatz Memmingen

Hier findest Du alle relevanten Informationen, die Du als Pilot benötigst, um Memmingen anzufliegen.

Flugplatz: Memmingen ICAO-Code: ETSM
Frequenz Turm: 122,100 Mhz GAFOR Gebiet: 72
Frequenz Ground: 122,100 Mhz Mogas: nein
Platzrunde: - Landegebühr: -
Platzhöhe: - Sunrise: 06:53 Uhr UTC
Pisten: 06/24 - 2.400 m x , ASPH Sunset: 15:28 Uhr UTC

Mitglieder, die in Memmingen fliegen

Flugwetter am Flugplatz Memmingen

Die METAR Information stammen aus EDNY (64.92 km entfernt).

METAR Code:
2019/11/18 13:20
EDNY 181320Z 25013KT 9999 SCT028 07/01 Q1011

Temperatur: 3,1 °C Niederschlag: - Wind: 9,9 kt
Temperatur (min.): -0,6 °C Luftdruck: 1016 hPa Windrichtung: 210 °
Temperatur (max.): 5,6 °C Luftfeuchtigkeit: 86 % Bewölkung: 2/8

Flugschulen am Flugplatz Memmingen

Am Flugplatz Memmingen gibt es eine Flugschule.

Benachbarte Flugplätze und Flugschulen

Es gibt 16 weitere Flugplätze in einem Umkreis von 50 km um den Flugplatz Memmingen.

Jetzt anmelden

Passwort vergessen

Umfrage Archiv

Lasst Ihr Euch bei Überlandflügen von FIS begleiten?

Ja, immer!
44.6 %
Ja, unregelmäßig!
28.9 %
Ja, aber nur selten!
21.7 %
Nein, nie!
4.8 %
Stimmen: 83 | Diskussion
Anzeige: Roland Aircraft
Statistik Alle Mitglieder

Aktuell sind 28 Besucher online.

Anzeige: VFR Sprechfunk Simulator


Anzeige: Pocket FMS